sensor_id;sensor_type;location;lat;lon;timestamp;P1;durP1;ratioP1;P2;durP2;ratioP2
3274;SDS011;1649;53.672;10.064;2023-02-22T00:01:51;31.23;;;10.43;;
3274;SDS011;1649;53.672;10.064;2023-02-22T00:04:34;33.50;;;10.53;;
3274;SDS011;1649;53.672;10.064;2023-02-22T00:07:03;32.93;;;11.50;;
3274;SDS011;1649;53.672;10.064;2023-02-22T00:09:28;28.23;;;11.50;;
3274;SDS011;1649;53.672;10.064;2023-02-22T00:11:54;36.20;;;12.00;;
3274;SDS011;1649;53.672;10.064;2023-02-22T00:14:19;32.27;;;11.23;;
3274;SDS011;1649;53.672;10.064;2023-02-22T00:16:45;33.87;;;12.67;;
3274;SDS011;1649;53.672;10.064;2023-02-22T00:19:10;29.47;;;11.97;;
3274;SDS011;1649;53.672;10.064;2023-02-22T00:21:36;31.27;;;12.07;;
3274;SDS011;1649;53.672;10.064;2023-02-22T00:24:01;30.60;;;11.20;;
3274;SDS011;1649;53.672;10.064;2023-02-22T00:26:47;37.70;;;11.97;;
3274;SDS011;1649;53.672;10.064;2023-02-22T00:29:16;39.83;;;11.00;;
3274;SDS011;1649;53.672;10.064;2023-02-22T00:31:41;33.80;;;10.97;;
3274;SDS011;1649;53.672;10.064;2023-02-22T00:34:07;24.47;;;10.67;;
3274;SDS011;1649;53.672;10.064;2023-02-22T00:36:32;23.73;;;10.23;;
3274;SDS011;1649;53.672;10.064;2023-02-22T00:38:58;23.17;;;10.40;;
3274;SDS011;1649;53.672;10.064;2023-02-22T00:41:23;21.83;;;9.43;;
3274;SDS011;1649;53.672;10.064;2023-02-22T00:43:49;26.57;;;9.53;;
3274;SDS011;1649;53.672;10.064;2023-02-22T00:46:14;32.53;;;9.80;;
3274;SDS011;1649;53.672;10.064;2023-02-22T00:48:40;27.67;;;9.53;;
3274;SDS011;1649;53.672;10.064;2023-02-22T00:51:06;20.37;;;9.50;;
3274;SDS011;1649;53.672;10.064;2023-02-22T00:53:31;21.67;;;9.80;;
3274;SDS011;1649;53.672;10.064;2023-02-22T00:55:57;29.40;;;9.93;;
3274;SDS011;1649;53.672;10.064;2023-02-22T00:58:22;21.60;;;9.10;;
3274;SDS011;1649;53.672;10.064;2023-02-22T01:00:48;37.07;;;10.07;;
3274;SDS011;1649;53.672;10.064;2023-02-22T01:03:15;22.93;;;9.40;;
3274;SDS011;1649;53.672;10.064;2023-02-22T01:05:43;22.70;;;8.37;;
3274;SDS011;1649;53.672;10.064;2023-02-22T01:08:10;28.40;;;9.47;;
3274;SDS011;1649;53.672;10.064;2023-02-22T01:10:37;21.77;;;8.63;;
3274;SDS011;1649;53.672;10.064;2023-02-22T01:13:03;36.00;;;11.80;;
3274;SDS011;1649;53.672;10.064;2023-02-22T01:15:32;22.40;;;9.20;;
3274;SDS011;1649;53.672;10.064;2023-02-22T01:17:59;23.90;;;10.03;;
3274;SDS011;1649;53.672;10.064;2023-02-22T01:20:25;20.60;;;9.10;;
3274;SDS011;1649;53.672;10.064;2023-02-22T01:22:53;22.53;;;9.43;;
3274;SDS011;1649;53.672;10.064;2023-02-22T01:25:22;24.10;;;8.40;;
3274;SDS011;1649;53.672;10.064;2023-02-22T01:27:51;23.17;;;9.00;;
3274;SDS011;1649;53.672;10.064;2023-02-22T01:30:20;30.27;;;10.07;;
3274;SDS011;1649;53.672;10.064;2023-02-22T01:32:47;27.63;;;10.43;;
3274;SDS011;1649;53.672;10.064;2023-02-22T01:35:16;29.73;;;10.87;;
3274;SDS011;1649;53.672;10.064;2023-02-22T01:37:43;24.57;;;10.77;;
3274;SDS011;1649;53.672;10.064;2023-02-22T01:40:13;26.37;;;10.63;;
3274;SDS011;1649;53.672;10.064;2023-02-22T01:42:45;33.30;;;12.70;;
3274;SDS011;1649;53.672;10.064;2023-02-22T01:45:31;39.83;;;12.93;;
3274;SDS011;1649;53.672;10.064;2023-02-22T01:48:11;31.57;;;13.17;;
3274;SDS011;1649;53.672;10.064;2023-02-22T01:50:38;41.00;;;13.90;;
3274;SDS011;1649;53.672;10.064;2023-02-22T01:53:28;37.40;;;12.07;;
3274;SDS011;1649;53.672;10.064;2023-02-22T01:56:00;38.03;;;15.10;;
3274;SDS011;1649;53.672;10.064;2023-02-22T01:58:27;38.63;;;14.10;;
3274;SDS011;1649;53.672;10.064;2023-02-22T02:00:56;47.20;;;13.20;;
3274;SDS011;1649;53.672;10.064;2023-02-22T02:03:23;50.57;;;14.40;;
3274;SDS011;1649;53.672;10.064;2023-02-22T02:05:53;46.33;;;13.03;;
3274;SDS011;1649;53.672;10.064;2023-02-22T02:10:54;36.10;;;12.47;;
3274;SDS011;1649;53.672;10.064;2023-02-22T02:13:20;38.00;;;12.57;;
3274;SDS011;1649;53.672;10.064;2023-02-22T02:15:46;56.83;;;13.90;;
3274;SDS011;1649;53.672;10.064;2023-02-22T02:18:13;51.77;;;15.73;;
3274;SDS011;1649;53.672;10.064;2023-02-22T02:26:42;61.17;;;14.00;;
3274;SDS011;1649;53.672;10.064;2023-02-22T02:37:32;48.87;;;15.40;;
3274;SDS011;1649;53.672;10.064;2023-02-22T02:40:58;40.43;;;14.70;;
3274;SDS011;1649;53.672;10.064;2023-02-22T02:43:08;48.47;;;15.17;;
3274;SDS011;1649;53.672;10.064;2023-02-22T02:45:43;41.20;;;15.30;;
3274;SDS011;1649;53.672;10.064;2023-02-22T02:48:13;40.80;;;13.80;;
3274;SDS011;1649;53.672;10.064;2023-02-22T02:50:44;46.20;;;14.63;;
3274;SDS011;1649;53.672;10.064;2023-02-22T02:53:12;45.40;;;14.23;;
3274;SDS011;1649;53.672;10.064;2023-02-22T02:55:43;45.17;;;15.17;;
3274;SDS011;1649;53.672;10.064;2023-02-22T02:58:10;43.17;;;14.10;;
3274;SDS011;1649;53.672;10.064;2023-02-22T03:00:42;48.07;;;14.03;;
3274;SDS011;1649;53.672;10.064;2023-02-22T03:09:29;51.37;;;14.40;;
3274;SDS011;1649;53.672;10.064;2023-02-22T03:17:36;46.23;;;12.47;;
3274;SDS011;1649;53.672;10.064;2023-02-22T03:20:10;44.87;;;13.63;;
3274;SDS011;1649;53.672;10.064;2023-02-22T03:22:45;39.10;;;12.23;;
3274;SDS011;1649;53.672;10.064;2023-02-22T03:25:23;35.13;;;12.60;;
3274;SDS011;1649;53.672;10.064;2023-02-22T03:27:58;55.00;;;13.77;;
3274;SDS011;1649;53.672;10.064;2023-02-22T03:30:31;49.13;;;13.37;;
3274;SDS011;1649;53.672;10.064;2023-02-22T03:33:06;42.80;;;14.73;;
3274;SDS011;1649;53.672;10.064;2023-02-22T03:35:47;43.73;;;12.77;;
3274;SDS011;1649;53.672;10.064;2023-02-22T03:38:20;35.70;;;11.50;;
3274;SDS011;1649;53.672;10.064;2023-02-22T03:40:49;38.13;;;12.57;;
3274;SDS011;1649;53.672;10.064;2023-02-22T03:43:20;39.10;;;12.50;;
3274;SDS011;1649;53.672;10.064;2023-02-22T03:45:49;43.53;;;13.60;;
3274;SDS011;1649;53.672;10.064;2023-02-22T03:48:18;40.17;;;13.40;;
3274;SDS011;1649;53.672;10.064;2023-02-22T03:50:49;40.57;;;13.03;;
3274;SDS011;1649;53.672;10.064;2023-02-22T03:53:16;32.50;;;10.90;;
3274;SDS011;1649;53.672;10.064;2023-02-22T03:55:43;43.40;;;12.47;;
3274;SDS011;1649;53.672;10.064;2023-02-22T03:58:15;41.80;;;14.70;;
3274;SDS011;1649;53.672;10.064;2023-02-22T04:00:42;36.60;;;12.57;;
3274;SDS011;1649;53.672;10.064;2023-02-22T04:03:08;38.10;;;13.07;;
3274;SDS011;1649;53.672;10.064;2023-02-22T04:05:35;39.97;;;12.53;;
3274;SDS011;1649;53.672;10.064;2023-02-22T04:08:00;40.13;;;12.40;;
3274;SDS011;1649;53.672;10.064;2023-02-22T04:10:26;28.57;;;12.10;;
3274;SDS011;1649;53.672;10.064;2023-02-22T04:12:51;36.73;;;11.13;;
3274;SDS011;1649;53.672;10.064;2023-02-22T04:15:21;32.00;;;11.10;;
3274;SDS011;1649;53.672;10.064;2023-02-22T04:17:47;29.37;;;11.77;;
3274;SDS011;1649;53.672;10.064;2023-02-22T04:20:13;29.67;;;10.93;;
3274;SDS011;1649;53.672;10.064;2023-02-22T04:22:39;29.70;;;11.40;;
3274;SDS011;1649;53.672;10.064;2023-02-22T04:25:05;31.23;;;10.97;;
3274;SDS011;1649;53.672;10.064;2023-02-22T04:27:31;29.70;;;10.60;;
3274;SDS011;1649;53.672;10.064;2023-02-22T04:29:57;29.27;;;10.37;;
3274;SDS011;1649;53.672;10.064;2023-02-22T04:32:22;26.73;;;11.20;;
3274;SDS011;1649;53.672;10.064;2023-02-22T04:34:48;23.33;;;10.03;;
3274;SDS011;1649;53.672;10.064;2023-02-22T04:37:13;34.10;;;10.30;;
3274;SDS011;1649;53.672;10.064;2023-02-22T04:39:39;32.20;;;11.40;;
3274;SDS011;1649;53.672;10.064;2023-02-22T04:42:04;29.77;;;9.40;;
3274;SDS011;1649;53.672;10.064;2023-02-22T04:44:30;27.50;;;9.70;;
3274;SDS011;1649;53.672;10.064;2023-02-22T04:46:56;37.03;;;9.90;;
3274;SDS011;1649;53.672;10.064;2023-02-22T04:49:22;27.80;;;9.40;;
3274;SDS011;1649;53.672;10.064;2023-02-22T04:51:48;34.37;;;10.50;;
3274;SDS011;1649;53.672;10.064;2023-02-22T04:54:13;29.00;;;10.40;;
3274;SDS011;1649;53.672;10.064;2023-02-22T04:56:41;35.40;;;10.03;;
3274;SDS011;1649;53.672;10.064;2023-02-22T04:59:07;26.63;;;10.20;;
3274;SDS011;1649;53.672;10.064;2023-02-22T05:01:33;27.60;;;10.40;;
3274;SDS011;1649;53.672;10.064;2023-02-22T05:04:03;25.67;;;9.40;;
3274;SDS011;1649;53.672;10.064;2023-02-22T05:06:30;32.43;;;9.37;;
3274;SDS011;1649;53.672;10.064;2023-02-22T05:08:55;21.80;;;8.77;;
3274;SDS011;1649;53.672;10.064;2023-02-22T05:11:21;30.40;;;9.87;;
3274;SDS011;1649;53.672;10.064;2023-02-22T05:13:47;23.97;;;8.63;;
3274;SDS011;1649;53.672;10.064;2023-02-22T05:16:12;23.80;;;9.90;;
3274;SDS011;1649;53.672;10.064;2023-02-22T05:18:38;29.27;;;9.27;;
3274;SDS011;1649;53.672;10.064;2023-02-22T05:21:04;28.60;;;9.70;;
3274;SDS011;1649;53.672;10.064;2023-02-22T05:23:30;22.93;;;8.60;;
3274;SDS011;1649;53.672;10.064;2023-02-22T05:25:56;23.97;;;8.50;;
3274;SDS011;1649;53.672;10.064;2023-02-22T05:28:22;19.80;;;7.93;;
3274;SDS011;1649;53.672;10.064;2023-02-22T05:30:48;22.77;;;7.20;;
3274;SDS011;1649;53.672;10.064;2023-02-22T05:33:13;22.20;;;9.27;;
3274;SDS011;1649;53.672;10.064;2023-02-22T05:35:39;23.00;;;9.17;;
3274;SDS011;1649;53.672;10.064;2023-02-22T05:38:05;26.77;;;9.80;;
3274;SDS011;1649;53.672;10.064;2023-02-22T05:40:30;23.20;;;9.63;;
3274;SDS011;1649;53.672;10.064;2023-02-22T05:42:56;22.33;;;8.83;;
3274;SDS011;1649;53.672;10.064;2023-02-22T05:45:23;23.67;;;8.53;;
3274;SDS011;1649;53.672;10.064;2023-02-22T05:47:50;28.83;;;10.77;;
3274;SDS011;1649;53.672;10.064;2023-02-22T05:50:16;25.57;;;9.83;;
3274;SDS011;1649;53.672;10.064;2023-02-22T05:52:43;23.50;;;10.70;;
3274;SDS011;1649;53.672;10.064;2023-02-22T05:55:09;27.23;;;10.00;;
3274;SDS011;1649;53.672;10.064;2023-02-22T05:57:37;26.07;;;9.97;;
3274;SDS011;1649;53.672;10.064;2023-02-22T06:00:03;32.17;;;11.20;;
3274;SDS011;1649;53.672;10.064;2023-02-22T06:02:30;29.63;;;10.90;;
3274;SDS011;1649;53.672;10.064;2023-02-22T06:04:57;32.17;;;11.90;;
3274;SDS011;1649;53.672;10.064;2023-02-22T06:07:22;32.33;;;11.30;;
3274;SDS011;1649;53.672;10.064;2023-02-22T06:09:48;35.03;;;10.73;;
3274;SDS011;1649;53.672;10.064;2023-02-22T06:12:13;31.63;;;12.17;;
3274;SDS011;1649;53.672;10.064;2023-02-22T06:14:40;31.30;;;13.23;;
3274;SDS011;1649;53.672;10.064;2023-02-22T06:17:09;32.30;;;12.67;;
3274;SDS011;1649;53.672;10.064;2023-02-22T06:19:36;38.70;;;13.07;;
3274;SDS011;1649;53.672;10.064;2023-02-22T06:22:02;41.00;;;13.27;;
3274;SDS011;1649;53.672;10.064;2023-02-22T06:24:27;32.00;;;12.63;;
3274;SDS011;1649;53.672;10.064;2023-02-22T06:26:53;38.10;;;14.30;;
3274;SDS011;1649;53.672;10.064;2023-02-22T06:29:19;43.77;;;14.50;;
3274;SDS011;1649;53.672;10.064;2023-02-22T06:31:45;38.30;;;14.30;;
3274;SDS011;1649;53.672;10.064;2023-02-22T06:34:10;40.57;;;14.33;;
3274;SDS011;1649;53.672;10.064;2023-02-22T06:36:36;43.67;;;14.50;;
3274;SDS011;1649;53.672;10.064;2023-02-22T06:39:01;44.47;;;14.90;;
3274;SDS011;1649;53.672;10.064;2023-02-22T06:41:27;41.20;;;14.10;;
3274;SDS011;1649;53.672;10.064;2023-02-22T06:43:53;44.77;;;16.13;;
3274;SDS011;1649;53.672;10.064;2023-02-22T06:46:18;43.67;;;16.23;;
3274;SDS011;1649;53.672;10.064;2023-02-22T06:48:45;51.80;;;16.50;;
3274;SDS011;1649;53.672;10.064;2023-02-22T06:51:10;42.33;;;14.37;;
3274;SDS011;1649;53.672;10.064;2023-02-22T06:53:36;49.27;;;14.97;;
3274;SDS011;1649;53.672;10.064;2023-02-22T06:56:01;46.17;;;16.90;;
3274;SDS011;1649;53.672;10.064;2023-02-22T06:58:27;50.47;;;16.33;;
3274;SDS011;1649;53.672;10.064;2023-02-22T07:00:53;45.00;;;15.90;;
3274;SDS011;1649;53.672;10.064;2023-02-22T07:03:19;42.67;;;15.77;;
3274;SDS011;1649;53.672;10.064;2023-02-22T07:05:44;50.60;;;14.47;;
3274;SDS011;1649;53.672;10.064;2023-02-22T07:08:10;57.90;;;15.87;;
3274;SDS011;1649;53.672;10.064;2023-02-22T07:10:36;47.07;;;16.00;;
3274;SDS011;1649;53.672;10.064;2023-02-22T07:13:03;53.80;;;15.90;;
3274;SDS011;1649;53.672;10.064;2023-02-22T07:15:30;61.63;;;15.90;;
3274;SDS011;1649;53.672;10.064;2023-02-22T07:17:57;47.63;;;17.27;;
3274;SDS011;1649;53.672;10.064;2023-02-22T07:20:23;50.77;;;16.30;;
3274;SDS011;1649;53.672;10.064;2023-02-22T07:22:50;54.70;;;17.10;;
3274;SDS011;1649;53.672;10.064;2023-02-22T07:25:16;51.50;;;14.97;;
3274;SDS011;1649;53.672;10.064;2023-02-22T07:27:43;45.20;;;14.83;;
3274;SDS011;1649;53.672;10.064;2023-02-22T07:32:42;48.47;;;17.47;;
3274;SDS011;1649;53.672;10.064;2023-02-22T07:35:13;49.97;;;16.00;;
3274;SDS011;1649;53.672;10.064;2023-02-22T07:37:47;45.30;;;16.27;;
3274;SDS011;1649;53.672;10.064;2023-02-22T07:40:13;53.73;;;17.80;;
3274;SDS011;1649;53.672;10.064;2023-02-22T07:42:52;48.97;;;16.27;;
3274;SDS011;1649;53.672;10.064;2023-02-22T07:45:20;46.63;;;16.03;;
3274;SDS011;1649;53.672;10.064;2023-02-22T07:47:46;52.63;;;15.80;;
3274;SDS011;1649;53.672;10.064;2023-02-22T07:50:13;43.57;;;15.50;;
3274;SDS011;1649;53.672;10.064;2023-02-22T07:52:39;47.03;;;15.97;;
3274;SDS011;1649;53.672;10.064;2023-02-22T07:55:05;48.13;;;16.00;;
3274;SDS011;1649;53.672;10.064;2023-02-22T07:57:33;44.60;;;15.60;;
3274;SDS011;1649;53.672;10.064;2023-02-22T07:59:58;43.37;;;16.13;;
3274;SDS011;1649;53.672;10.064;2023-02-22T08:02:24;43.23;;;16.23;;
3274;SDS011;1649;53.672;10.064;2023-02-22T08:04:50;45.13;;;15.77;;
3274;SDS011;1649;53.672;10.064;2023-02-22T08:07:15;47.53;;;15.73;;
3274;SDS011;1649;53.672;10.064;2023-02-22T08:09:41;44.80;;;15.70;;
3274;SDS011;1649;53.672;10.064;2023-02-22T08:12:06;50.03;;;16.70;;
3274;SDS011;1649;53.672;10.064;2023-02-22T08:14:32;40.80;;;15.10;;
3274;SDS011;1649;53.672;10.064;2023-02-22T08:16:57;43.97;;;14.77;;
3274;SDS011;1649;53.672;10.064;2023-02-22T08:19:23;37.67;;;15.23;;
3274;SDS011;1649;53.672;10.064;2023-02-22T08:21:48;38.57;;;14.27;;
3274;SDS011;1649;53.672;10.064;2023-02-22T08:24:14;33.37;;;15.23;;
3274;SDS011;1649;53.672;10.064;2023-02-22T08:26:43;40.23;;;15.27;;
3274;SDS011;1649;53.672;10.064;2023-02-22T08:29:11;38.50;;;14.47;;
3274;SDS011;1649;53.672;10.064;2023-02-22T08:31:38;35.97;;;14.17;;
3274;SDS011;1649;53.672;10.064;2023-02-22T08:34:04;39.70;;;15.10;;
3274;SDS011;1649;53.672;10.064;2023-02-22T08:36:29;40.07;;;15.67;;
3274;SDS011;1649;53.672;10.064;2023-02-22T08:38:56;32.17;;;14.30;;
3274;SDS011;1649;53.672;10.064;2023-02-22T08:41:22;31.50;;;13.43;;
3274;SDS011;1649;53.672;10.064;2023-02-22T08:43:48;35.23;;;15.47;;
3274;SDS011;1649;53.672;10.064;2023-02-22T08:46:15;31.67;;;14.27;;
3274;SDS011;1649;53.672;10.064;2023-02-22T08:48:50;35.93;;;15.57;;
3274;SDS011;1649;53.672;10.064;2023-02-22T08:51:16;32.10;;;12.83;;
3274;SDS011;1649;53.672;10.064;2023-02-22T08:53:42;34.77;;;15.30;;
3274;SDS011;1649;53.672;10.064;2023-02-22T08:56:08;34.40;;;14.37;;
3274;SDS011;1649;53.672;10.064;2023-02-22T08:58:33;34.77;;;15.37;;
3274;SDS011;1649;53.672;10.064;2023-02-22T09:00:59;33.10;;;15.07;;
3274;SDS011;1649;53.672;10.064;2023-02-22T09:03:24;37.20;;;15.53;;
3274;SDS011;1649;53.672;10.064;2023-02-22T09:05:50;34.73;;;15.17;;
3274;SDS011;1649;53.672;10.064;2023-02-22T09:08:15;29.23;;;14.27;;
3274;SDS011;1649;53.672;10.064;2023-02-22T09:10:41;33.80;;;13.97;;
3274;SDS011;1649;53.672;10.064;2023-02-22T09:13:09;34.30;;;15.30;;
3274;SDS011;1649;53.672;10.064;2023-02-22T09:15:35;31.00;;;14.17;;
3274;SDS011;1649;53.672;10.064;2023-02-22T09:18:00;36.27;;;15.73;;
3274;SDS011;1649;53.672;10.064;2023-02-22T09:20:26;35.33;;;14.27;;
3274;SDS011;1649;53.672;10.064;2023-02-22T09:22:52;31.87;;;15.00;;
3274;SDS011;1649;53.672;10.064;2023-02-22T09:25:19;33.57;;;14.73;;
3274;SDS011;1649;53.672;10.064;2023-02-22T09:27:46;33.60;;;15.20;;
3274;SDS011;1649;53.672;10.064;2023-02-22T09:30:17;33.53;;;14.70;;
3274;SDS011;1649;53.672;10.064;2023-02-22T09:32:47;34.60;;;13.67;;
3274;SDS011;1649;53.672;10.064;2023-02-22T09:35:13;34.80;;;15.60;;
3274;SDS011;1649;53.672;10.064;2023-02-22T09:37:39;28.83;;;14.00;;
3274;SDS011;1649;53.672;10.064;2023-02-22T09:40:08;34.90;;;13.80;;
3274;SDS011;1649;53.672;10.064;2023-02-22T09:43:04;31.20;;;15.00;;
3274;SDS011;1649;53.672;10.064;2023-02-22T09:45:42;30.23;;;14.97;;
3274;SDS011;1649;53.672;10.064;2023-02-22T09:48:13;29.40;;;14.60;;
3274;SDS011;1649;53.672;10.064;2023-02-22T09:50:41;32.77;;;14.87;;
3274;SDS011;1649;53.672;10.064;2023-02-22T09:55:47;30.90;;;15.17;;
3274;SDS011;1649;53.672;10.064;2023-02-22T10:01:17;31.90;;;14.40;;
3274;SDS011;1649;53.672;10.064;2023-02-22T10:07:02;28.97;;;12.13;;
3274;SDS011;1649;53.672;10.064;2023-02-22T10:09:36;26.07;;;13.23;;
3274;SDS011;1649;53.672;10.064;2023-02-22T10:12:11;32.23;;;13.60;;
3274;SDS011;1649;53.672;10.064;2023-02-22T10:14:48;31.20;;;12.80;;
3274;SDS011;1649;53.672;10.064;2023-02-22T10:17:34;31.80;;;15.10;;
3274;SDS011;1649;53.672;10.064;2023-02-22T10:23:19;26.33;;;13.97;;
3274;SDS011;1649;53.672;10.064;2023-02-22T10:28:53;32.00;;;13.73;;
3274;SDS011;1649;53.672;10.064;2023-02-22T10:31:26;27.87;;;13.73;;
3274;SDS011;1649;53.672;10.064;2023-02-22T10:34:02;30.10;;;14.57;;
3274;SDS011;1649;53.672;10.064;2023-02-22T10:36:31;30.43;;;13.63;;
3274;SDS011;1649;53.672;10.064;2023-02-22T10:41:29;25.00;;;13.67;;
3274;SDS011;1649;53.672;10.064;2023-02-22T10:43:57;29.77;;;13.67;;
3274;SDS011;1649;53.672;10.064;2023-02-22T10:46:22;28.80;;;12.60;;
3274;SDS011;1649;53.672;10.064;2023-02-22T10:48:52;24.27;;;12.63;;
3274;SDS011;1649;53.672;10.064;2023-02-22T10:51:20;24.20;;;12.43;;
3274;SDS011;1649;53.672;10.064;2023-02-22T10:53:52;27.10;;;13.13;;
3274;SDS011;1649;53.672;10.064;2023-02-22T10:56:24;24.90;;;13.57;;
3274;SDS011;1649;53.672;10.064;2023-02-22T10:58:58;26.20;;;12.30;;
3274;SDS011;1649;53.672;10.064;2023-02-22T11:01:36;26.17;;;13.13;;
3274;SDS011;1649;53.672;10.064;2023-02-22T11:04:14;22.60;;;11.60;;
3274;SDS011;1649;53.672;10.064;2023-02-22T11:06:44;23.50;;;12.00;;
3274;SDS011;1649;53.672;10.064;2023-02-22T11:09:19;25.20;;;12.50;;
3274;SDS011;1649;53.672;10.064;2023-02-22T11:11:49;24.93;;;13.03;;
3274;SDS011;1649;53.672;10.064;2023-02-22T11:14:30;23.17;;;12.57;;
3274;SDS011;1649;53.672;10.064;2023-02-22T11:16:56;24.30;;;13.60;;
3274;SDS011;1649;53.672;10.064;2023-02-22T11:19:25;21.43;;;11.90;;
3274;SDS011;1649;53.672;10.064;2023-02-22T11:21:57;23.53;;;12.73;;
3274;SDS011;1649;53.672;10.064;2023-02-22T11:24:33;23.90;;;11.70;;
3274;SDS011;1649;53.672;10.064;2023-02-22T11:30:18;26.40;;;14.20;;
3274;SDS011;1649;53.672;10.064;2023-02-22T11:33:04;25.83;;;13.20;;
3274;SDS011;1649;53.672;10.064;2023-02-22T11:35:49;28.60;;;13.80;;
3274;SDS011;1649;53.672;10.064;2023-02-22T11:38:29;24.73;;;12.57;;
3274;SDS011;1649;53.672;10.064;2023-02-22T11:41:04;24.37;;;13.87;;
3274;SDS011;1649;53.672;10.064;2023-02-22T11:43:42;21.57;;;10.53;;
3274;SDS011;1649;53.672;10.064;2023-02-22T11:46:13;24.27;;;12.90;;
3274;SDS011;1649;53.672;10.064;2023-02-22T11:48:53;23.13;;;12.60;;
3274;SDS011;1649;53.672;10.064;2023-02-22T11:51:27;24.50;;;13.00;;
3274;SDS011;1649;53.672;10.064;2023-02-22T11:54:08;21.50;;;12.43;;
3274;SDS011;1649;53.672;10.064;2023-02-22T11:56:52;28.43;;;12.43;;
3274;SDS011;1649;53.672;10.064;2023-02-22T11:59:48;24.60;;;13.83;;
3274;SDS011;1649;53.672;10.064;2023-02-22T12:02:51;23.73;;;12.30;;
3274;SDS011;1649;53.672;10.064;2023-02-22T12:08:30;24.50;;;13.33;;
3274;SDS011;1649;53.672;10.064;2023-02-22T12:21:57;23.80;;;12.13;;
3274;SDS011;1649;53.672;10.064;2023-02-22T12:24:35;22.60;;;12.67;;
3274;SDS011;1649;53.672;10.064;2023-02-22T12:27:46;22.47;;;12.43;;
3274;SDS011;1649;53.672;10.064;2023-02-22T12:29:57;21.00;;;11.70;;
3274;SDS011;1649;53.672;10.064;2023-02-22T12:32:37;24.93;;;13.37;;
3274;SDS011;1649;53.672;10.064;2023-02-22T12:35:17;23.47;;;12.90;;
3274;SDS011;1649;53.672;10.064;2023-02-22T12:41:00;21.70;;;12.20;;
3274;SDS011;1649;53.672;10.064;2023-02-22T12:43:43;24.83;;;13.30;;
3274;SDS011;1649;53.672;10.064;2023-02-22T12:46:21;24.63;;;13.50;;
3274;SDS011;1649;53.672;10.064;2023-02-22T12:54:09;20.87;;;11.93;;
3274;SDS011;1649;53.672;10.064;2023-02-22T12:56:52;22.87;;;12.77;;
3274;SDS011;1649;53.672;10.064;2023-02-22T12:59:47;25.33;;;13.53;;
3274;SDS011;1649;53.672;10.064;2023-02-22T13:04:53;25.43;;;13.50;;
3274;SDS011;1649;53.672;10.064;2023-02-22T13:16:20;24.00;;;12.93;;
3274;SDS011;1649;53.672;10.064;2023-02-22T13:19:07;23.20;;;12.70;;
3274;SDS011;1649;53.672;10.064;2023-02-22T13:21:56;27.10;;;12.00;;
3274;SDS011;1649;53.672;10.064;2023-02-22T13:24:33;24.42;;;14.70;;
3274;SDS011;1649;53.672;10.064;2023-02-22T13:27:14;21.30;;;12.27;;
3274;SDS011;1649;53.672;10.064;2023-02-22T13:29:46;23.27;;;11.73;;
3274;SDS011;1649;53.672;10.064;2023-02-22T13:38:22;23.53;;;12.47;;
3274;SDS011;1649;53.672;10.064;2023-02-22T13:41:18;23.90;;;11.97;;
3274;SDS011;1649;53.672;10.064;2023-02-22T13:52:25;20.07;;;12.20;;
3274;SDS011;1649;53.672;10.064;2023-02-22T13:54:54;20.23;;;11.97;;
3274;SDS011;1649;53.672;10.064;2023-02-22T14:08:03;23.63;;;11.87;;
3274;SDS011;1649;53.672;10.064;2023-02-22T14:10:37;19.17;;;11.40;;
3274;SDS011;1649;53.672;10.064;2023-02-22T14:13:10;24.10;;;12.20;;
3274;SDS011;1649;53.672;10.064;2023-02-22T14:16:04;20.50;;;10.73;;
3274;SDS011;1649;53.672;10.064;2023-02-22T14:18:23;21.63;;;11.50;;
3274;SDS011;1649;53.672;10.064;2023-02-22T14:21:05;23.60;;;12.00;;
3274;SDS011;1649;53.672;10.064;2023-02-22T14:23:33;23.60;;;13.17;;
3274;SDS011;1649;53.672;10.064;2023-02-22T14:26:08;21.30;;;12.10;;
3274;SDS011;1649;53.672;10.064;2023-02-22T14:28:38;23.47;;;11.83;;
3274;SDS011;1649;53.672;10.064;2023-02-22T14:31:13;25.00;;;12.57;;
3274;SDS011;1649;53.672;10.064;2023-02-22T14:33:59;23.70;;;12.90;;
3274;SDS011;1649;53.672;10.064;2023-02-22T14:36:35;21.17;;;11.40;;
3274;SDS011;1649;53.672;10.064;2023-02-22T14:39:26;26.43;;;13.23;;
3274;SDS011;1649;53.672;10.064;2023-02-22T14:42:06;25.30;;;12.70;;
3274;SDS011;1649;53.672;10.064;2023-02-22T14:44:42;23.17;;;12.43;;
3274;SDS011;1649;53.672;10.064;2023-02-22T14:50:19;23.80;;;12.57;;
3274;SDS011;1649;53.672;10.064;2023-02-22T14:52:47;25.87;;;12.50;;
3274;SDS011;1649;53.672;10.064;2023-02-22T14:55:24;24.60;;;13.23;;
3274;SDS011;1649;53.672;10.064;2023-02-22T14:58:11;22.80;;;12.43;;
3274;SDS011;1649;53.672;10.064;2023-02-22T15:00:43;24.13;;;12.53;;
3274;SDS011;1649;53.672;10.064;2023-02-22T15:03:28;24.80;;;14.13;;
3274;SDS011;1649;53.672;10.064;2023-02-22T15:06:14;23.50;;;12.60;;
3274;SDS011;1649;53.672;10.064;2023-02-22T15:08:42;22.00;;;12.50;;
3274;SDS011;1649;53.672;10.064;2023-02-22T15:11:19;24.13;;;13.10;;
3274;SDS011;1649;53.672;10.064;2023-02-22T15:13:50;24.70;;;13.13;;
3274;SDS011;1649;53.672;10.064;2023-02-22T15:16:17;23.17;;;12.57;;
3274;SDS011;1649;53.672;10.064;2023-02-22T15:18:49;26.67;;;13.23;;
3274;SDS011;1649;53.672;10.064;2023-02-22T15:21:18;22.47;;;12.60;;
3274;SDS011;1649;53.672;10.064;2023-02-22T15:23:48;26.07;;;13.80;;
3274;SDS011;1649;53.672;10.064;2023-02-22T15:26:41;28.03;;;13.00;;
3274;SDS011;1649;53.672;10.064;2023-02-22T15:29:11;24.63;;;12.70;;
3274;SDS011;1649;53.672;10.064;2023-02-22T15:31:40;24.90;;;13.97;;
3274;SDS011;1649;53.672;10.064;2023-02-22T15:36:39;24.37;;;12.90;;
3274;SDS011;1649;53.672;10.064;2023-02-22T15:39:28;23.40;;;11.80;;
3274;SDS011;1649;53.672;10.064;2023-02-22T15:42:07;23.13;;;12.83;;
3274;SDS011;1649;53.672;10.064;2023-02-22T15:44:38;26.73;;;13.23;;
3274;SDS011;1649;53.672;10.064;2023-02-22T15:47:17;24.00;;;12.53;;
3274;SDS011;1649;53.672;10.064;2023-02-22T15:50:17;22.87;;;12.60;;
3274;SDS011;1649;53.672;10.064;2023-02-22T15:52:48;23.83;;;12.00;;
3274;SDS011;1649;53.672;10.064;2023-02-22T15:55:35;25.80;;;12.63;;
3274;SDS011;1649;53.672;10.064;2023-02-22T16:00:36;25.80;;;11.93;;
3274;SDS011;1649;53.672;10.064;2023-02-22T16:03:05;22.37;;;13.40;;
3274;SDS011;1649;53.672;10.064;2023-02-22T16:05:43;22.70;;;13.60;;
3274;SDS011;1649;53.672;10.064;2023-02-22T16:08:16;24.90;;;13.30;;
3274;SDS011;1649;53.672;10.064;2023-02-22T16:11:06;22.43;;;12.53;;
3274;SDS011;1649;53.672;10.064;2023-02-22T16:13:37;22.77;;;12.53;;
3274;SDS011;1649;53.672;10.064;2023-02-22T16:16:20;24.73;;;12.37;;
3274;SDS011;1649;53.672;10.064;2023-02-22T16:18:48;22.63;;;12.00;;
3274;SDS011;1649;53.672;10.064;2023-02-22T16:21:15;26.23;;;12.57;;
3274;SDS011;1649;53.672;10.064;2023-02-22T16:23:50;24.50;;;13.00;;
3274;SDS011;1649;53.672;10.064;2023-02-22T16:28:54;21.63;;;12.10;;
3274;SDS011;1649;53.672;10.064;2023-02-22T16:31:33;27.20;;;12.67;;
3274;SDS011;1649;53.672;10.064;2023-02-22T16:34:00;21.93;;;12.93;;
3274;SDS011;1649;53.672;10.064;2023-02-22T16:36:38;21.53;;;12.10;;
3274;SDS011;1649;53.672;10.064;2023-02-22T16:39:22;25.83;;;12.50;;
3274;SDS011;1649;53.672;10.064;2023-02-22T16:41:56;27.27;;;13.40;;
3274;SDS011;1649;53.672;10.064;2023-02-22T16:44:23;20.57;;;12.33;;
3274;SDS011;1649;53.672;10.064;2023-02-22T16:46:53;24.50;;;13.60;;
3274;SDS011;1649;53.672;10.064;2023-02-22T16:49:20;27.23;;;13.23;;
3274;SDS011;1649;53.672;10.064;2023-02-22T16:51:51;33.33;;;19.33;;
3274;SDS011;1649;53.672;10.064;2023-02-22T16:54:24;34.20;;;18.20;;
3274;SDS011;1649;53.672;10.064;2023-02-22T16:56:52;41.53;;;21.90;;
3274;SDS011;1649;53.672;10.064;2023-02-22T16:59:20;42.27;;;22.63;;